Time;durP1;ratioP1;P1;durP2;ratioP2;P2;SDS_P1;SDS_P2;PMS_P1;PMS_P2;Temp;Humidity;BMP_temperature;BMP_pressure;BME280_temperature;BME280_humidity;BME280_pressure;Samples;Min_cycle;Max_cycle;Signal;HPM_P1;HPM_P2
2023/06/03 00:00:23;;;;;;;2.75;1.08;;;13.20;77.10;;;;;;5031547;28;20486;-67
2023/06/03 00:02:52;;;;;;;4.63;1.35;;;13.20;76.60;;;;;;5031652;28;20037;-67
2023/06/03 00:05:21;;;;;;;1.08;0.80;;;13.10;76.30;;;;;;5031583;28;20516;-67
2023/06/03 00:07:47;;;;;;;1.33;0.85;;;13.10;76.30;;;;;;5031126;28;20128;-67
2023/06/03 00:10:13;;;;;;;3.13;0.70;;;13.10;76.30;;;;;;5031562;28;20079;-67
2023/06/03 00:12:39;;;;;;;2.83;1.02;;;13.10;75.80;;;;;;5031570;28;20045;-68
2023/06/03 00:15:06;;;;;;;1.60;0.80;;;13.10;75.80;;;;;;5030192;28;20515;-67
2023/06/03 00:17:33;;;;;;;1.55;0.70;;;13.00;75.50;;;;;;5030936;28;20045;-67
2023/06/03 00:20:06;;;;;;;3.03;0.95;;;12.90;75.50;;;;;;5031301;28;20473;-67
2023/06/03 00:22:34;;;;;;;3.05;0.90;;;12.90;75.50;;;;;;5031492;28;20529;-67
2023/06/03 00:24:59;;;;;;;3.92;1.10;;;12.90;75.40;;;;;;5030302;28;20405;-68
2023/06/03 00:27:25;;;;;;;3.33;0.80;;;12.90;75.00;;;;;;5031128;28;20044;-67
2023/06/03 00:29:50;;;;;;;2.22;1.05;;;12.80;75.10;;;;;;5031361;28;20037;-68
2023/06/03 00:32:16;;;;;;;4.40;0.93;;;12.80;75.30;;;;;;5031235;28;20048;-67
2023/06/03 00:34:42;;;;;;;1.45;0.63;;;12.80;75.40;;;;;;5031182;28;20132;-67
2023/06/03 00:37:07;;;;;;;2.15;1.02;;;12.80;75.80;;;;;;5031116;28;20405;-67
2023/06/03 00:39:33;;;;;;;2.13;0.90;;;12.80;75.90;;;;;;5031069;28;20038;-67
2023/06/03 00:41:59;;;;;;;3.03;1.00;;;12.70;76.00;;;;;;5031252;28;20038;-67
2023/06/03 00:44:24;;;;;;;1.48;0.77;;;12.70;76.20;;;;;;5031239;28;20378;-67
2023/06/03 00:46:51;;;;;;;2.28;1.00;;;12.60;76.50;;;;;;5030493;28;20094;-68
2023/06/03 00:49:16;;;;;;;1.90;0.90;;;12.60;76.70;;;;;;5034756;28;20048;-66
2023/06/03 00:51:43;;;;;;;3.95;0.73;;;12.50;77.10;;;;;;5034708;28;20041;-67
2023/06/03 00:54:08;;;;;;;3.42;0.82;;;12.50;77.40;;;;;;5035014;28;20076;-66
2023/06/03 00:56:42;;;;;;;1.80;1.08;;;12.50;77.90;;;;;;5034598;28;20036;-66
2023/06/03 00:59:16;;;;;;;1.13;0.70;;;12.50;78.10;;;;;;5034666;28;20127;-66
2023/06/03 01:01:42;;;;;;;1.30;0.80;;;12.40;78.70;;;;;;5034704;28;20500;-67
2023/06/03 01:04:10;;;;;;;2.85;0.85;;;12.40;78.20;;;;;;5034615;28;20520;-67
2023/06/03 01:07:04;;;;;;;1.25;0.80;;;12.40;78.20;;;;;;5034621;28;20040;-67
2023/06/03 01:10:03;;;;;;;1.90;1.00;;;12.40;77.70;;;;;;5033304;28;20037;-67
2023/06/03 01:12:47;;;;;;;2.10;1.00;;;12.30;78.00;;;;;;5030424;28;20058;-65
2023/06/03 01:15:18;;;;;;;1.30;0.60;;;12.30;78.00;;;;;;5034570;28;20121;-64
2023/06/03 01:17:47;;;;;;;1.52;0.70;;;12.30;78.00;;;;;;5033891;28;20034;-64
2023/06/03 01:20:14;;;;;;;1.92;1.10;;;12.30;78.20;;;;;;5034199;28;20041;-65
2023/06/03 01:22:42;;;;;;;1.58;0.68;;;12.30;77.80;;;;;;5034342;28;20041;-65
2023/06/03 01:25:09;;;;;;;1.67;0.88;;;12.30;78.20;;;;;;5034427;28;20417;-65
2023/06/03 01:27:38;;;;;;;2.35;0.77;;;12.30;78.60;;;;;;5033945;28;20045;-65
2023/06/03 01:30:10;;;;;;;2.05;0.90;;;12.30;78.70;;;;;;5034120;28;20065;-64
2023/06/03 01:32:37;;;;;;;2.08;0.95;;;12.30;78.60;;;;;;5034120;28;20512;-65
2023/06/03 01:35:07;;;;;;;2.45;0.88;;;12.20;79.10;;;;;;5033941;28;20046;-64
2023/06/03 01:37:34;;;;;;;2.20;1.10;;;12.20;79.70;;;;;;5034144;28;20047;-65
2023/06/03 01:40:01;;;;;;;2.95;0.90;;;12.20;80.20;;;;;;5032869;28;20382;-65
2023/06/03 01:42:26;;;;;;;2.00;0.80;;;12.10;80.80;;;;;;5034048;28;20525;-64
2023/06/03 01:44:53;;;;;;;5.28;1.63;;;12.00;81.70;;;;;;5033994;28;20077;-65
2023/06/03 01:47:19;;;;;;;5.18;1.48;;;12.00;82.60;;;;;;5033685;28;20072;-65
2023/06/03 01:49:45;;;;;;;4.05;1.17;;;11.90;83.60;;;;;;5033593;28;20112;-65
2023/06/03 01:52:11;;;;;;;3.15;1.52;;;11.90;84.30;;;;;;5033903;28;20041;-65
2023/06/03 01:54:37;;;;;;;2.40;1.15;;;11.80;85.40;;;;;;5034174;28;20037;-65
2023/06/03 01:57:03;;;;;;;3.00;1.00;;;11.70;85.90;;;;;;5033845;28;20035;-65
2023/06/03 01:59:28;;;;;;;3.05;1.00;;;11.70;86.40;;;;;;5032840;28;20041;-65
2023/06/03 02:01:55;;;;;;;3.40;1.40;;;11.60;87.00;;;;;;5033605;28;20543;-66
2023/06/03 02:04:21;;;;;;;1.42;1.10;;;11.60;87.80;;;;;;5033260;28;20037;-65
2023/06/03 02:06:52;;;;;;;1.67;0.80;;;11.60;88.40;;;;;;5032260;28;20404;-65
2023/06/03 02:09:21;;;;;;;3.25;0.90;;;11.50;88.70;;;;;;5033482;28;20408;-65
2023/06/03 02:11:47;;;;;;;2.83;1.23;;;11.50;89.30;;;;;;5033432;28;20063;-66
2023/06/03 02:14:14;;;;;;;1.88;1.00;;;11.50;89.80;;;;;;5033251;28;20493;-66
2023/06/03 02:16:42;;;;;;;2.22;1.35;;;11.50;90.00;;;;;;5032752;28;20521;-66
2023/06/03 02:19:16;;;;;;;4.95;0.80;;;11.50;90.10;;;;;;5033072;28;20444;-65
2023/06/03 02:21:43;;;;;;;3.45;1.08;;;11.50;90.20;;;;;;5033233;28;20080;-65
2023/06/03 02:24:09;;;;;;;2.97;1.08;;;11.50;90.40;;;;;;5032434;28;20042;-65
2023/06/03 02:26:36;;;;;;;2.83;1.10;;;11.40;90.70;;;;;;5031667;28;20045;-65
2023/06/03 02:29:05;;;;;;;2.22;0.98;;;11.40;90.80;;;;;;5032534;28;20045;-66
2023/06/03 02:31:31;;;;;;;4.85;1.58;;;11.40;90.80;;;;;;5032806;28;20042;-65
2023/06/03 02:33:57;;;;;;;3.72;1.10;;;11.30;90.90;;;;;;5033005;28;20037;-65
2023/06/03 02:36:22;;;;;;;1.25;0.70;;;11.30;90.90;;;;;;5032718;28;20068;-66
2023/06/03 02:38:48;;;;;;;3.80;1.10;;;11.20;91.10;;;;;;5032741;28;20036;-65
2023/06/03 02:41:14;;;;;;;2.03;1.35;;;11.20;91.30;;;;;;5032767;28;20515;-65
2023/06/03 02:43:43;;;;;;;5.00;1.20;;;11.20;91.40;;;;;;5032548;28;20077;-65
2023/06/03 02:46:08;;;;;;;1.70;1.00;;;11.20;91.70;;;;;;5032462;28;20042;-65
2023/06/03 02:48:34;;;;;;;3.10;1.23;;;11.10;91.80;;;;;;5032649;28;20045;-65
2023/06/03 02:51:00;;;;;;;1.40;1.02;;;11.10;91.90;;;;;;5032677;28;20096;-65
2023/06/03 02:53:26;;;;;;;3.78;1.20;;;11.10;92.00;;;;;;5032482;28;20037;-65
2023/06/03 02:55:51;;;;;;;2.58;1.17;;;11.10;92.00;;;;;;5032409;28;20041;-65
2023/06/03 02:58:17;;;;;;;3.00;0.98;;;11.10;92.10;;;;;;5032256;28;20036;-65
2023/06/03 03:00:43;;;;;;;4.47;1.33;;;11.10;92.40;;;;;;5032414;28;20037;-65
2023/06/03 03:03:09;;;;;;;2.42;1.10;;;10.90;92.50;;;;;;5032581;28;20044;-65
2023/06/03 03:05:35;;;;;;;2.33;1.30;;;11.00;92.60;;;;;;5032522;28;20041;-65
2023/06/03 03:08:01;;;;;;;4.63;1.52;;;11.00;92.70;;;;;;5031912;28;20071;-65
2023/06/03 03:10:27;;;;;;;3.97;1.20;;;10.90;92.80;;;;;;5032146;28;20501;-65
2023/06/03 03:12:53;;;;;;;2.22;1.27;;;10.90;92.80;;;;;;5032155;28;20038;-65
2023/06/03 03:15:18;;;;;;;4.03;1.10;;;10.90;93.10;;;;;;5032072;28;20041;-65
2023/06/03 03:17:44;;;;;;;3.38;1.30;;;10.90;93.20;;;;;;5031858;28;20087;-65
2023/06/03 03:20:10;;;;;;;2.42;1.00;;;10.90;93.30;;;;;;5031708;28;20087;-65
2023/06/03 03:22:40;;;;;;;2.25;1.10;;;10.90;93.50;;;;;;5032163;28;20041;-65
2023/06/03 03:25:07;;;;;;;2.60;1.00;;;10.80;93.60;;;;;;5032026;28;20052;-65
2023/06/03 03:27:33;;;;;;;2.05;1.20;;;10.80;93.60;;;;;;5031424;28;20497;-65
2023/06/03 03:30:01;;;;;;;3.38;1.05;;;10.80;93.70;;;;;;5031794;28;20056;-65
2023/06/03 03:32:26;;;;;;;3.15;1.45;;;10.70;93.80;;;;;;5030599;28;20095;-65
2023/06/03 03:35:11;;;;;;;3.28;1.30;;;10.70;93.90;;;;;;5032006;28;20045;-65
2023/06/03 03:37:36;;;;;;;4.38;1.48;;;10.80;93.90;;;;;;5031575;28;20120;-65
2023/06/03 03:40:05;;;;;;;2.08;1.10;;;10.80;94.00;;;;;;5031653;28;20121;-65
2023/06/03 03:42:31;;;;;;;4.70;1.33;;;10.80;94.00;;;;;;5031825;28;20535;-65
2023/06/03 03:45:00;;;;;;;2.80;1.23;;;10.70;94.00;;;;;;5031933;28;20037;-67
2023/06/03 03:47:26;;;;;;;3.92;1.20;;;10.70;94.10;;;;;;5031538;28;20095;-67
2023/06/03 03:49:52;;;;;;;3.10;1.50;;;10.60;94.10;;;;;;5031749;28;20060;-67
2023/06/03 03:52:28;;;;;;;3.70;1.42;;;10.70;94.20;;;;;;5031675;28;20037;-67
2023/06/03 03:54:54;;;;;;;3.10;1.20;;;10.70;94.30;;;;;;5031653;28;20112;-67
2023/06/03 03:57:21;;;;;;;3.28;1.25;;;10.70;94.40;;;;;;5031396;28;20137;-67
2023/06/03 03:59:47;;;;;;;2.45;0.90;;;10.70;94.50;;;;;;5031559;28;20060;-67
2023/06/03 04:02:13;;;;;;;2.35;1.05;;;10.70;94.60;;;;;;5031568;28;20497;-67
2023/06/03 04:04:41;;;;;;;4.38;1.42;;;10.70;94.70;;;;;;5031471;28;20083;-67
2023/06/03 04:07:10;;;;;;;4.82;1.40;;;10.70;94.70;;;;;;5030959;28;20394;-65
2023/06/03 04:09:37;;;;;;;2.10;1.33;;;10.70;94.70;;;;;;5031779;28;20053;-65
2023/06/03 04:12:06;;;;;;;4.82;1.13;;;10.70;94.90;;;;;;5030284;28;20404;-65
2023/06/03 04:14:48;;;;;;;2.65;1.27;;;10.70;95.00;;;;;;5031534;28;20037;-65
2023/06/03 04:17:17;;;;;;;2.47;1.02;;;10.80;95.00;;;;;;5031100;28;20037;-65
2023/06/03 04:19:47;;;;;;;2.72;1.27;;;10.80;95.00;;;;;;5030723;28;20037;-65
2023/06/03 04:22:18;;;;;;;3.55;1.50;;;10.80;95.00;;;;;;5032707;28;20093;-65
2023/06/03 04:24:43;;;;;;;2.25;1.23;;;10.80;95.00;;;;;;5035072;28;20052;-65
2023/06/03 04:27:09;;;;;;;2.50;1.42;;;10.90;95.00;;;;;;5035072;28;20045;-65
2023/06/03 04:29:34;;;;;;;3.33;1.38;;;10.90;95.00;;;;;;5035159;28;20033;-65
2023/06/03 04:32:00;;;;;;;3.45;1.30;;;10.90;95.00;;;;;;5035214;28;20496;-65
2023/06/03 04:34:29;;;;;;;3.83;1.30;;;10.90;95.00;;;;;;5034910;28;20041;-65
2023/06/03 04:36:55;;;;;;;3.50;1.33;;;11.00;95.00;;;;;;5034837;28;20045;-65
2023/06/03 04:39:21;;;;;;;6.07;1.13;;;11.00;95.00;;;;;;5035187;28;20033;-67
2023/06/03 04:41:46;;;;;;;3.03;1.63;;;11.10;95.10;;;;;;5035104;28;20052;-65
2023/06/03 04:44:13;;;;;;;4.03;1.73;;;11.20;95.30;;;;;;5035084;28;20424;-65
2023/06/03 04:46:39;;;;;;;1.95;1.40;;;11.30;94.80;;;;;;5034643;28;20046;-65
2023/06/03 04:49:08;;;;;;;1.95;1.20;;;11.40;94.70;;;;;;5034730;28;20052;-65
2023/06/03 04:51:34;;;;;;;2.78;1.10;;;11.60;94.30;;;;;;5034596;28;20452;-65
2023/06/03 04:54:00;;;;;;;2.85;1.52;;;11.80;94.10;;;;;;5034749;28;20589;-65
2023/06/03 04:56:28;;;;;;;3.75;1.30;;;11.90;93.70;;;;;;5034503;28;20108;-65
2023/06/03 04:58:55;;;;;;;1.98;1.15;;;12.10;93.20;;;;;;5034688;28;20041;-65
2023/06/03 05:01:25;;;;;;;2.15;1.30;;;12.30;92.90;;;;;;5034625;28;20037;-66
2023/06/03 05:03:54;;;;;;;2.50;1.50;;;12.50;92.20;;;;;;5034447;28;20386;-66
2023/06/03 05:06:20;;;;;;;2.15;1.30;;;12.60;91.70;;;;;;5034596;28;20045;-66
2023/06/03 05:08:50;;;;;;;1.48;0.90;;;12.90;91.30;;;;;;5034492;28;20429;-65
2023/06/03 05:11:17;;;;;;;3.55;1.27;;;13.10;90.50;;;;;;5034582;28;20038;-66
2023/06/03 05:13:42;;;;;;;3.92;1.30;;;13.30;90.00;;;;;;5034373;28;20071;-66
2023/06/03 05:16:08;;;;;;;2.15;1.10;;;13.40;89.20;;;;;;5033927;28;20037;-65
2023/06/03 05:18:35;;;;;;;3.20;1.00;;;13.60;87.90;;;;;;5034316;28;20029;-67
2023/06/03 05:21:02;;;;;;;2.72;1.20;;;13.80;86.40;;;;;;5034352;28;20069;-66
2023/06/03 05:23:27;;;;;;;3.28;1.30;;;14.00;85.20;;;;;;5034379;28;20040;-66
2023/06/03 05:25:53;;;;;;;2.63;1.40;;;14.10;83.30;;;;;;5033987;28;20041;-66
2023/06/03 05:28:18;;;;;;;2.25;1.10;;;14.30;81.80;;;;;;5034029;28;20029;-67
2023/06/03 05:30:44;;;;;;;1.80;1.10;;;14.50;81.60;;;;;;5034072;28;20597;-67
2023/06/03 05:33:22;;;;;;;3.83;1.27;;;14.60;80.60;;;;;;5033465;28;20042;-67
2023/06/03 05:35:47;;;;;;;3.70;1.27;;;14.50;79.60;;;;;;5034083;28;20045;-67
2023/06/03 05:38:13;;;;;;;2.80;1.40;;;14.50;79.70;;;;;;5033607;28;20042;-67
2023/06/03 05:40:38;;;;;;;4.93;1.60;;;14.50;79.40;;;;;;5033996;28;20038;-67
2023/06/03 05:43:04;;;;;;;3.72;1.33;;;14.40;79.20;;;;;;5032679;28;20121;-67
2023/06/03 05:45:30;;;;;;;2.15;1.58;;;14.60;78.70;;;;;;5034141;28;20397;-67
2023/06/03 05:47:55;;;;;;;3.40;1.00;;;14.90;78.20;;;;;;5033703;28;20455;-67
2023/06/03 05:50:21;;;;;;;2.10;1.02;;;15.10;77.60;;;;;;5033741;28;20463;-67
2023/06/03 05:52:46;;;;;;;3.67;1.45;;;14.90;77.30;;;;;;5033738;28;20492;-67
2023/06/03 05:55:12;;;;;;;4.32;1.42;;;15.00;77.20;;;;;;5033678;28;20072;-66
2023/06/03 05:57:40;;;;;;;3.97;1.55;;;15.30;77.70;;;;;;5033351;28;20069;-67
2023/06/03 06:00:06;;;;;;;1.65;1.10;;;15.50;76.90;;;;;;5033722;28;20087;-67
2023/06/03 06:02:32;;;;;;;4.95;2.05;;;15.70;76.00;;;;;;5033626;28;20048;-67
2023/06/03 06:04:57;;;;;;;3.85;1.15;;;15.50;73.90;;;;;;5032382;28;20413;-67
2023/06/03 06:07:23;;;;;;;1.80;0.93;;;15.60;73.20;;;;;;5033237;28;20432;-67
2023/06/03 06:09:48;;;;;;;3.10;0.88;;;15.80;72.10;;;;;;5033351;28;20512;-67
2023/06/03 06:12:14;;;;;;;1.60;1.00;;;15.70;72.20;;;;;;5033206;28;20660;-67
2023/06/03 06:14:39;;;;;;;2.90;0.93;;;15.80;71.80;;;;;;5033478;28;20477;-67
2023/06/03 06:17:05;;;;;;;1.48;0.90;;;16.00;70.10;;;;;;5032838;28;20056;-67
2023/06/03 06:19:33;;;;;;;3.70;1.00;;;16.10;68.90;;;;;;5033073;28;20036;-66
2023/06/03 06:21:59;;;;;;;1.52;0.93;;;16.30;69.30;;;;;;5033297;28;20120;-67
2023/06/03 06:24:24;;;;;;;1.40;1.00;;;16.70;68.90;;;;;;5033141;28;20116;-67
2023/06/03 06:26:51;;;;;;;2.25;1.20;;;17.00;68.00;;;;;;5032693;28;20121;-67
2023/06/03 06:29:16;;;;;;;2.97;0.80;;;17.30;66.60;;;;;;5033181;28;20424;-67
2023/06/03 06:31:44;;;;;;;2.25;0.90;;;17.60;65.00;;;;;;5033020;28;20124;-67
2023/06/03 06:34:10;;;;;;;2.13;1.02;;;17.90;64.80;;;;;;5033017;28;20034;-67
2023/06/03 06:36:44;;;;;;;1.80;0.95;;;18.00;63.20;;;;;;5032737;28;20071;-67
2023/06/03 06:39:33;;;;;;;2.72;0.98;;;18.30;61.60;;;;;;5032796;28;20041;-68
2023/06/03 06:42:09;;;;;;;1.98;0.82;;;18.30;60.60;;;;;;5022345;28;20049;-68
2023/06/03 06:44:44;;;;;;;3.20;0.80;;;18.60;60.30;;;;;;5032439;28;20124;-68
2023/06/03 06:47:10;;;;;;;3.85;0.95;;;18.80;59.60;;;;;;5030570;28;20120;-68
2023/06/03 06:49:36;;;;;;;3.67;1.33;;;18.70;58.50;;;;;;5032334;28;20068;-68
2023/06/03 06:52:02;;;;;;;3.08;0.90;;;18.80;58.10;;;;;;5032470;28;20046;-68
2023/06/03 06:54:28;;;;;;;2.47;0.98;;;19.00;57.00;;;;;;5032512;28;20044;-68
2023/06/03 06:56:53;;;;;;;4.20;0.88;;;19.20;57.10;;;;;;5032216;28;20041;-68
2023/06/03 06:59:19;;;;;;;1.52;0.80;;;19.40;55.80;;;;;;5032276;28;20041;-68
2023/06/03 07:01:45;;;;;;;3.55;0.95;;;19.70;55.60;;;;;;5032335;28;20053;-68
2023/06/03 07:04:11;;;;;;;3.17;0.80;;;19.90;54.80;;;;;;5032259;28;20053;-67
2023/06/03 07:06:36;;;;;;;0.90;0.60;;;20.20;53.20;;;;;;5031934;28;20042;-68
2023/06/03 07:09:02;;;;;;;2.25;1.15;;;20.40;51.60;;;;;;5032360;28;20041;-68
2023/06/03 07:11:32;;;;;;;3.47;1.10;;;20.50;50.50;;;;;;5032123;28;20041;-68
2023/06/03 07:13:57;;;;;;;2.17;1.10;;;20.60;50.10;;;;;;5032299;28;20421;-67
2023/06/03 07:16:24;;;;;;;3.03;0.80;;;20.60;49.20;;;;;;5031867;28;20037;-68
2023/06/03 07:18:53;;;;;;;13.23;1.45;;;20.40;46.90;;;;;;5031953;28;20034;-68
2023/06/03 07:21:23;;;;;;;1.85;0.93;;;20.50;47.20;;;;;;5032449;28;20037;-67
2023/06/03 07:23:50;;;;;;;1.27;0.77;;;20.70;46.80;;;;;;5032203;28;20045;-68
2023/06/03 07:26:15;;;;;;;2.75;1.35;;;20.80;46.60;;;;;;5031879;28;20034;-68
2023/06/03 07:28:41;;;;;;;1.52;0.57;;;20.80;45.50;;;;;;5031892;28;20508;-68
2023/06/03 07:31:09;;;;;;;5.15;0.95;;;21.00;45.20;;;;;;5031877;28;20072;-67
2023/06/03 07:33:39;;;;;;;1.85;0.88;;;21.10;44.20;;;;;;5030581;28;20081;-68
2023/06/03 07:36:05;;;;;;;2.58;0.93;;;21.30;44.70;;;;;;5031914;28;20041;-68
2023/06/03 07:38:37;;;;;;;4.88;1.33;;;21.40;43.30;;;;;;5031894;28;20037;-68
2023/06/03 07:41:03;;;;;;;3.22;1.60;;;21.30;42.50;;;;;;5031992;28;20155;-68
2023/06/03 07:43:29;;;;;;;2.25;0.93;;;21.50;43.30;;;;;;5030486;28;20048;-67
2023/06/03 07:45:54;;;;;;;1.25;0.80;;;21.60;41.80;;;;;;5031426;28;20041;-68
2023/06/03 07:48:20;;;;;;;1.45;0.70;;;21.60;41.50;;;;;;5030942;28;20029;-67
2023/06/03 07:50:47;;;;;;;2.35;0.90;;;21.80;40.80;;;;;;5031505;28;20041;-69
2023/06/03 07:53:21;;;;;;;2.92;0.90;;;21.60;40.50;;;;;;5031321;28;20077;-73
2023/06/03 07:55:47;;;;;;;2.42;0.93;;;22.00;39.90;;;;;;5030419;28;20083;-73
2023/06/03 07:58:15;;;;;;;1.92;0.70;;;21.90;39.80;;;;;;5030298;28;20045;-73
2023/06/03 08:00:48;;;;;;;4.25;1.05;;;21.50;37.80;;;;;;5031324;28;20048;-73
2023/06/03 08:03:18;;;;;;;2.00;0.85;;;21.60;37.80;;;;;;5013748;28;20041;-73
2023/06/03 08:05:47;;;;;;;3.00;1.25;;;21.20;37.70;;;;;;5030297;28;20053;-73
2023/06/03 08:08:14;;;;;;;2.70;0.98;;;20.80;37.20;;;;;;5031432;28;20056;-73
2023/06/03 08:10:42;;;;;;;1.05;0.60;;;20.40;36.90;;;;;;5030362;28;20126;-71
2023/06/03 08:13:07;;;;;;;2.85;0.50;;;19.90;36.90;;;;;;5031353;28;20046;-73
2023/06/03 08:15:37;;;;;;;2.80;0.70;;;19.50;37.40;;;;;;5031711;28;20120;-72
2023/06/03 08:18:07;;;;;;;0.80;0.40;;;19.30;38.10;;;;;;5029903;28;20056;-72
2023/06/03 08:20:35;;;;;;;2.53;1.67;;;19.20;38.60;;;;;;5031385;28;20117;-72
2023/06/03 08:23:01;;;;;;;1.15;0.57;;;19.00;39.20;;;;;;5028796;28;20138;-73
2023/06/03 08:25:26;;;;;;;3.03;1.23;;;18.90;39.20;;;;;;5027492;28;20128;-72
2023/06/03 08:27:52;;;;;;;2.38;1.00;;;18.80;38.90;;;;;;5008622;28;20523;-72
2023/06/03 08:30:20;;;;;;;0.95;0.40;;;18.70;38.20;;;;;;5026497;28;20413;-72
2023/06/03 08:32:47;;;;;;;2.80;0.88;;;18.60;38.50;;;;;;5031319;28;20048;-72
2023/06/03 08:35:15;;;;;;;1.13;0.57;;;18.50;38.90;;;;;;5031434;28;20121;-72
2023/06/03 08:37:42;;;;;;;1.17;0.52;;;18.50;38.40;;;;;;5030050;28;20060;-72
2023/06/03 08:40:13;;;;;;;2.00;0.80;;;18.40;37.90;;;;;;5031102;28;20037;-72
2023/06/03 08:42:46;;;;;;;2.08;0.60;;;18.50;37.80;;;;;;5030351;28;20045;-72
2023/06/03 08:45:14;;;;;;;1.50;0.77;;;18.50;37.80;;;;;;5031417;28;20041;-72
2023/06/03 08:48:21;;;;;;;1.52;0.70;;;18.50;38.00;;;;;;5030044;28;20109;-73
2023/06/03 08:50:49;;;;;;;1.23;0.80;;;18.70;38.00;;;;;;4966872;28;20081;-74
2023/06/03 08:53:15;;;;;;;1.50;0.70;;;18.80;37.30;;;;;;5029456;28;20408;-75
2023/06/03 08:55:41;;;;;;;3.05;0.80;;;19.10;37.60;;;;;;5029762;28;20033;-77
2023/06/03 08:58:18;;;;;;;1.88;0.40;;;19.30;36.80;;;;;;5028638;28;20084;-76
2023/06/03 09:00:46;;;;;;;2.33;0.60;;;19.60;36.20;;;;;;5030153;28;20029;-76
2023/06/03 09:03:12;;;;;;;2.47;0.60;;;19.90;36.50;;;;;;5029396;28;20041;-77
2023/06/03 09:05:38;;;;;;;1.95;0.50;;;20.20;34.60;;;;;;5029670;28;20045;-76
2023/06/03 09:08:05;;;;;;;0.68;0.22;;;20.50;34.60;;;;;;5030839;28;20048;-81
2023/06/03 09:10:31;;;;;;;2.30;0.63;;;20.80;34.50;;;;;;5037106;28;20044;-78
2023/06/03 09:12:58;;;;;;;1.30;0.47;;;21.20;34.90;;;;;;5038350;28;20044;-77
2023/06/03 09:15:24;;;;;;;2.15;0.50;;;21.10;33.40;;;;;;5041164;28;20056;-79
2023/06/03 09:17:51;;;;;;;1.55;0.50;;;21.30;33.50;;;;;;5036214;28;20123;-80
2023/06/03 09:20:16;;;;;;;2.65;0.50;;;21.30;34.60;;;;;;5035160;28;20038;-76
2023/06/03 09:22:43;;;;;;;5.50;0.80;;;21.30;33.50;;;;;;5037020;28;20042;-78
2023/06/03 09:25:09;;;;;;;1.58;0.70;;;21.50;33.40;;;;;;5038565;28;20414;-79
2023/06/03 09:27:35;;;;;;;1.58;0.57;;;21.70;33.40;;;;;;5043000;28;20041;-77
2023/06/03 09:30:05;;;;;;;3.17;0.88;;;21.80;33.00;;;;;;5037719;28;20520;-80
2023/06/03 09:32:35;;;;;;;4.90;1.55;;;21.70;32.70;;;;;;5024229;28;20075;-81
2023/06/03 09:35:04;;;;;;;1.92;0.85;;;21.60;33.10;;;;;;5023004;28;20029;-79
2023/06/03 09:37:34;;;;;;;1.63;0.60;;;21.50;32.80;;;;;;5041310;28;20041;-80
2023/06/03 09:40:01;;;;;;;2.10;0.80;;;21.10;33.00;;;;;;5025829;28;20433;-80
2023/06/03 09:42:41;;;;;;;1.67;0.68;;;21.20;33.00;;;;;;5040834;28;20105;-79
2023/06/03 09:45:07;;;;;;;1.30;0.68;;;21.10;32.70;;;;;;5043246;28;20079;-78
2023/06/03 09:47:38;;;;;;;1.40;0.60;;;21.20;32.80;;;;;;5044129;28;20068;-77
2023/06/03 09:50:06;;;;;;;1.17;0.47;;;21.30;33.10;;;;;;5044056;28;20128;-79
2023/06/03 09:52:36;;;;;;;1.58;0.50;;;21.40;33.00;;;;;;5046887;28;20041;-79
2023/06/03 09:55:04;;;;;;;1.13;0.60;;;21.40;33.40;;;;;;5050535;28;20056;-81
2023/06/03 09:57:29;;;;;;;1.50;0.85;;;21.40;33.30;;;;;;5030961;28;20038;-77
2023/06/03 10:00:11;;;;;;;2.17;0.57;;;21.30;32.80;;;;;;5030250;28;20041;-81
2023/06/03 10:02:38;;;;;;;1.92;0.77;;;21.30;32.30;;;;;;5045750;28;20037;-81
2023/06/03 10:05:23;;;;;;;1.63;0.80;;;21.30;33.00;;;;;;5046040;28;20037;-83
2023/06/03 10:07:49;;;;;;;2.63;0.65;;;21.30;33.20;;;;;;5042714;28;20409;-79
2023/06/03 10:10:15;;;;;;;1.77;0.65;;;21.30;33.40;;;;;;5022624;28;20037;-79
2023/06/03 10:12:40;;;;;;;3.90;0.63;;;21.20;33.50;;;;;;5026483;28;20125;-78
2023/06/03 10:15:06;;;;;;;1.80;0.68;;;21.30;33.50;;;;;;5028099;28;20048;-81
2023/06/03 10:17:32;;;;;;;4.20;0.60;;;21.10;32.80;;;;;;5043839;28;20033;-81
2023/06/03 10:19:57;;;;;;;1.30;0.70;;;21.10;32.70;;;;;;5041691;28;20064;-80
2023/06/03 10:22:26;;;;;;;3.78;0.63;;;20.90;32.50;;;;;;5034013;28;20041;-78
2023/06/03 10:24:54;;;;;;;2.75;0.75;;;20.90;33.00;;;;;;5035886;28;20045;-77
2023/06/03 10:27:20;;;;;;;4.05;0.90;;;20.80;32.30;;;;;;5043121;28;20033;-78
2023/06/03 10:29:51;;;;;;;1.45;0.90;;;20.70;32.60;;;;;;5042448;28;20077;-78
2023/06/03 10:32:17;;;;;;;2.60;0.80;;;20.70;32.70;;;;;;5045345;28;20041;-79
2023/06/03 10:34:44;;;;;;;2.13;0.70;;;20.80;33.10;;;;;;5044670;28;20132;-80
2023/06/03 10:37:13;;;;;;;3.42;0.57;;;20.70;33.20;;;;;;5044412;28;20068;-79
2023/06/03 10:39:41;;;;;;;2.97;0.60;;;20.80;32.70;;;;;;5042534;28;20037;-79
2023/06/03 10:42:07;;;;;;;1.08;0.82;;;20.80;32.00;;;;;;5025353;28;20049;-80
2023/06/03 10:44:33;;;;;;;0.93;0.70;;;20.60;32.50;;;;;;5041762;28;20053;-79
2023/06/03 10:47:05;;;;;;;1.13;0.40;;;20.70;32.90;;;;;;5043228;28;20052;-79
2023/06/03 10:49:55;;;;;;;2.25;0.65;;;20.70;33.40;;;;;;5041996;28;20072;-79
2023/06/03 10:52:36;;;;;;;1.88;0.70;;;20.60;32.90;;;;;;5041893;28;20061;-79
2023/06/03 10:55:09;;;;;;;3.13;0.73;;;20.60;32.80;;;;;;5044041;28;20044;-79
2023/06/03 10:57:44;;;;;;;2.15;0.65;;;20.70;33.00;;;;;;5043643;28;20069;-79
2023/06/03 11:00:11;;;;;;;1.35;0.47;;;20.60;32.50;;;;;;5043839;28;20049;-79
2023/06/03 11:03:03;;;;;;;1.00;0.43;;;20.50;32.50;;;;;;5039619;28;20119;-79
2023/06/03 11:05:29;;;;;;;1.70;0.60;;;20.40;32.80;;;;;;5037000;28;20108;-79
2023/06/03 11:07:54;;;;;;;2.17;0.70;;;20.50;33.50;;;;;;5037257;28;20045;-79
2023/06/03 11:10:41;;;;;;;1.80;0.80;;;20.50;32.90;;;;;;5039885;28;20037;-79
2023/06/03 11:13:08;;;;;;;1.70;0.75;;;20.40;32.80;;;;;;5040932;28;20045;-80
2023/06/03 11:15:56;;;;;;;1.38;0.80;;;20.60;33.10;;;;;;5039956;28;20500;-79
2023/06/03 11:18:22;;;;;;;1.50;0.70;;;20.50;32.70;;;;;;5033344;28;20068;-75
2023/06/03 11:20:48;;;;;;;2.30;0.80;;;20.50;32.60;;;;;;5035980;28;20037;-77
2023/06/03 11:23:42;;;;;;;3.28;0.70;;;20.70;34.20;;;;;;5043684;28;20140;-78
2023/06/03 11:26:33;;;;;;;1.75;0.70;;;20.70;33.30;;;;;;5043723;28;20041;-77
2023/06/03 11:29:03;;;;;;;3.95;0.82;;;20.70;34.90;;;;;;5040927;28;20095;-79
2023/06/03 11:31:30;;;;;;;0.85;0.60;;;20.80;34.90;;;;;;5031010;28;20033;-73
2023/06/03 11:34:18;;;;;;;2.50;1.08;;;20.90;34.60;;;;;;5032109;28;20037;-73
2023/06/03 11:36:46;;;;;;;2.80;0.95;;;20.80;33.30;;;;;;5031768;28;20102;-72
2023/06/03 11:39:12;;;;;;;5.25;0.75;;;20.80;33.50;;;;;;5031605;28;20536;-72
2023/06/03 11:42:08;;;;;;;1.40;0.73;;;20.60;33.60;;;;;;5032050;28;20073;-73
2023/06/03 11:44:35;;;;;;;2.90;0.55;;;20.60;33.30;;;;;;5031946;28;20037;-73
2023/06/03 11:47:01;;;;;;;2.67;0.70;;;20.70;33.90;;;;;;5031660;28;20045;-73
2023/06/03 11:49:26;;;;;;;1.25;0.47;;;20.70;35.10;;;;;;5030459;28;20048;-72
2023/06/03 11:51:57;;;;;;;2.80;0.90;;;20.60;35.00;;;;;;5030454;28;20164;-73
2023/06/03 11:54:23;;;;;;;1.40;0.73;;;20.60;34.50;;;;;;5031896;28;20045;-73
2023/06/03 11:56:51;;;;;;;1.73;0.88;;;20.70;34.70;;;;;;5030427;28;20042;-73
2023/06/03 11:59:20;;;;;;;2.15;0.90;;;20.70;34.50;;;;;;5030428;28;20117;-73
2023/06/03 12:01:57;;;;;;;2.72;0.77;;;20.70;33.30;;;;;;5030487;28;20033;-73
2023/06/03 12:04:22;;;;;;;2.38;1.00;;;20.70;33.40;;;;;;5031416;28;20091;-73
2023/06/03 12:06:48;;;;;;;2.13;0.85;;;20.60;34.30;;;;;;5031502;28;20033;-73
2023/06/03 12:09:25;;;;;;;2.17;1.05;;;20.60;34.00;;;;;;5030284;28;20081;-73
2023/06/03 12:11:50;;;;;;;2.92;0.70;;;20.70;33.60;;;;;;5031339;28;20064;-73
2023/06/03 12:14:26;;;;;;;6.55;1.00;;;20.60;33.40;;;;;;5030014;28;20493;-73
2023/06/03 12:16:53;;;;;;;2.05;0.80;;;20.60;33.10;;;;;;5029705;28;20033;-73
2023/06/03 12:19:19;;;;;;;1.52;0.80;;;20.60;33.20;;;;;;5031467;28;20172;-73
2023/06/03 12:21:54;;;;;;;2.03;0.70;;;20.50;33.00;;;;;;5030303;28;20048;-73
2023/06/03 12:24:27;;;;;;;1.30;0.63;;;20.50;32.80;;;;;;5031494;28;20064;-73
2023/06/03 12:26:54;;;;;;;1.48;0.60;;;20.50;33.70;;;;;;5031083;28;20048;-73
2023/06/03 12:29:21;;;;;;;1.65;0.70;;;20.50;34.00;;;;;;5029783;28;20053;-73
2023/06/03 12:32:00;;;;;;;3.13;0.80;;;20.50;33.30;;;;;;5030094;28;20132;-72
2023/06/03 12:34:35;;;;;;;2.20;0.93;;;20.40;33.10;;;;;;5013584;28;20044;-72
2023/06/03 12:37:12;;;;;;;4.78;0.70;;;20.40;34.30;;;;;;5029824;28;20080;-73
2023/06/03 12:39:48;;;;;;;2.15;0.80;;;20.70;34.20;;;;;;5029773;28;20048;-73
2023/06/03 12:42:18;;;;;;;1.40;0.60;;;20.70;33.40;;;;;;5029910;28;20052;-73
2023/06/03 12:44:52;;;;;;;3.78;0.73;;;20.80;33.70;;;;;;5034900;28;20033;-73
2023/06/03 12:47:19;;;;;;;3.22;1.00;;;20.90;33.60;;;;;;5033759;28;20045;-73
2023/06/03 12:50:07;;;;;;;2.63;0.95;;;20.90;35.00;;;;;;5034755;28;20404;-73
2023/06/03 12:52:36;;;;;;;1.77;0.90;;;20.80;36.20;;;;;;5033755;28;20048;-73
2023/06/03 12:55:03;;;;;;;2.25;0.75;;;20.80;34.40;;;;;;5035022;28;20042;-73